Time;durP1;ratioP1;P1;durP2;ratioP2;P2;SDS_P1;SDS_P2;PMS_P1;PMS_P2;Temp;Humidity;BMP_temperature;BMP_pressure;BME280_temperature;BME280_humidity;BME280_pressure;Samples;Min_cycle;Max_cycle;Signal;HPM_P1;HPM_P2
2023/07/26 00:01:25;;;;;;;1.17;0.68;;;;;;;17.06;81.03;100045.34;5070773;28;20180;-63
2023/07/26 00:03:54;;;;;;;0.40;0.20;;;;;;;17.09;80.65;100046.47;5004292;28;20117;-62
2023/07/26 00:06:20;;;;;;;0.35;0.35;;;;;;;16.95;81.11;100046.69;5074921;28;20039;-63
2023/07/26 00:08:45;;;;;;;0.50;0.43;;;;;;;17.00;81.07;100044.28;5001291;28;20535;-62
2023/07/26 00:11:11;;;;;;;0.45;0.45;;;;;;;17.00;81.19;100040.78;5071157;28;20112;-63
2023/07/26 00:13:36;;;;;;;0.47;0.35;;;;;;;16.83;81.75;100044.53;5000278;28;20363;-62
2023/07/26 00:16:02;;;;;;;1.85;0.68;;;;;;;16.88;82.15;100038.63;5072670;28;20033;-64
2023/07/26 00:18:28;;;;;;;0.20;0.20;;;;;;;16.90;81.76;100042.47;5005801;28;20103;-63
2023/07/26 00:20:53;;;;;;;0.30;0.15;;;;;;;16.91;81.96;100045.97;5002975;28;20030;-64
2023/07/26 00:23:19;;;;;;;0.38;0.35;;;;;;;16.87;81.51;100054.19;5009299;28;20083;-64
2023/07/26 00:25:44;;;;;;;0.95;0.63;;;;;;;16.86;81.98;100047.22;5002073;28;20030;-62
2023/07/26 00:28:09;;;;;;;0.43;0.43;;;;;;;16.85;82.32;100048.41;5009210;28;20035;-63
2023/07/26 00:30:36;;;;;;;0.32;0.32;;;;;;;16.79;82.14;100049.28;5063846;28;20037;-61
2023/07/26 00:33:01;;;;;;;0.77;0.45;;;;;;;16.83;81.93;100055.44;5072415;28;20026;-63
2023/07/26 00:35:31;;;;;;;0.38;0.20;;;;;;;16.75;82.50;100049.31;5009557;28;20046;-63
2023/07/26 00:37:57;;;;;;;0.67;0.43;;;;;;;16.73;82.37;100054.41;5004322;28;20034;-63
2023/07/26 00:40:24;;;;;;;5.95;0.75;;;;;;;16.71;83.50;100056.75;4999213;28;20293;-63
2023/07/26 00:42:51;;;;;;;0.20;0.20;;;;;;;16.72;83.23;100057.53;4995672;28;20045;-62
2023/07/26 00:45:16;;;;;;;0.43;0.40;;;;;;;16.64;82.86;100056.88;5008326;28;20034;-63
2023/07/26 00:47:42;;;;;;;3.22;0.50;;;;;;;16.58;82.99;100060.44;5000605;28;20091;-63
2023/07/26 00:50:08;;;;;;;0.43;0.30;;;;;;;16.55;83.33;100061.28;5008410;28;20018;-64
2023/07/26 00:52:35;;;;;;;0.70;0.38;;;;;;;16.55;83.24;100061.28;5003316;28;20045;-64
2023/07/26 00:55:02;;;;;;;0.20;0.20;;;;;;;16.54;83.23;100060.50;5052372;28;20490;-64
2023/07/26 00:57:32;;;;;;;0.55;0.30;;;;;;;16.58;83.19;100055.78;5009784;28;20030;-64
2023/07/26 00:59:57;;;;;;;0.35;0.30;;;;;;;16.57;83.15;100065.13;5068905;28;20063;-62
2023/07/26 01:02:23;;;;;;;0.65;0.40;;;;;;;16.48;83.30;100070.28;5073617;28;20112;-62
2023/07/26 01:04:50;;;;;;;0.73;0.65;;;;;;;16.44;83.10;100068.75;5004234;28;21287;-64
2023/07/26 01:07:27;;;;;;;0.40;0.30;;;;;;;16.50;83.09;100067.16;5002695;28;20049;-61
2023/07/26 01:10:09;;;;;;;0.30;0.30;;;;;;;16.47;83.29;100070.69;5005701;28;20026;-63
2023/07/26 01:12:42;;;;;;;0.10;0.10;;;;;;;16.40;83.63;100070.75;5067196;28;20033;-64
2023/07/26 01:15:12;;;;;;;0.40;0.30;;;;;;;16.31;83.76;100076.69;5004339;28;20026;-63
2023/07/26 01:17:38;;;;;;;0.30;0.20;;;;;;;16.23;84.42;100084.19;5006291;28;20151;-62
2023/07/26 01:20:04;;;;;;;0.75;0.47;;;;;;;16.24;84.30;100082.97;4999679;28;20128;-63
2023/07/26 01:22:29;;;;;;;0.88;0.43;;;;;;;16.26;84.17;100066.25;5007860;28;20037;-63
2023/07/26 01:24:56;;;;;;;1.52;0.47;;;;;;;16.18;84.29;100071.03;5004110;28;20038;-63
2023/07/26 01:27:22;;;;;;;0.75;0.63;;;;;;;16.08;84.77;100076.59;5003688;28;20090;-62
2023/07/26 01:29:51;;;;;;;0.75;0.45;;;;;;;16.05;84.95;100077.38;5007702;28;20037;-61
2023/07/26 01:32:18;;;;;;;2.13;0.30;;;;;;;16.04;84.84;100082.06;4997818;28;20060;-64
2023/07/26 01:34:44;;;;;;;1.38;0.40;;;;;;;16.12;84.66;100078.06;5059438;28;20755;-64
2023/07/26 01:37:10;;;;;;;0.30;0.30;;;;;;;16.06;84.39;100081.66;4997368;28;20030;-64
2023/07/26 01:39:36;;;;;;;0.88;0.63;;;;;;;15.99;84.85;100079.00;5007484;28;20465;-61
2023/07/26 01:42:02;;;;;;;2.20;0.70;;;;;;;15.95;84.76;100076.34;5073402;28;20104;-62
2023/07/26 01:44:37;;;;;;;1.73;0.50;;;;;;;16.05;84.66;100086.31;5075624;28;20038;-61
2023/07/26 01:47:02;;;;;;;1.00;0.50;;;;;;;16.00;84.37;100084.06;5072016;28;20059;-61
2023/07/26 01:49:29;;;;;;;0.40;0.30;;;;;;;15.88;84.96;100084.56;5005793;28;20030;-58
2023/07/26 01:51:54;;;;;;;0.50;0.50;;;;;;;15.79;85.35;100091.66;4996920;28;20486;-61
2023/07/26 01:54:20;;;;;;;0.60;0.60;;;;;;;15.81;85.20;100083.88;5064149;28;20038;-61
2023/07/26 01:56:46;;;;;;;0.52;0.40;;;;;;;15.71;85.61;100085.53;4998588;28;20057;-61
2023/07/26 01:59:11;;;;;;;0.47;0.32;;;;;;;15.73;85.26;100088.59;5067101;28;20092;-61
2023/07/26 02:01:36;;;;;;;2.90;0.30;;;;;;;15.78;85.04;100085.44;5076225;28;20517;-61
2023/07/26 02:04:02;;;;;;;2.35;0.50;;;;;;;15.86;84.76;100086.13;5065933;28;20026;-62
2023/07/26 02:06:28;;;;;;;0.47;0.47;;;;;;;15.79;84.92;100097.84;5068767;28;20026;-61
2023/07/26 02:08:53;;;;;;;0.95;0.50;;;;;;;15.73;85.19;100087.81;5061690;28;20364;-62
2023/07/26 02:11:19;;;;;;;0.70;0.35;;;;;;;15.70;85.41;100086.69;5008067;28;20034;-61
2023/07/26 02:13:44;;;;;;;1.52;0.47;;;;;;;15.68;85.81;100091.75;5007071;28;20386;-62
2023/07/26 02:16:09;;;;;;;0.95;0.43;;;;;;;15.83;84.79;100087.72;5065169;28;20034;-62
2023/07/26 02:18:35;;;;;;;0.60;0.60;;;;;;;15.75;85.54;100093.63;5008022;28;20026;-61
2023/07/26 02:21:00;;;;;;;0.50;0.40;;;;;;;15.82;85.73;100090.84;5070733;28;20037;-59
2023/07/26 02:23:26;;;;;;;0.30;0.30;;;;;;;15.83;85.63;100087.72;5074330;28;20090;-61
2023/07/26 02:25:51;;;;;;;7.13;0.60;;;;;;;15.72;85.93;100084.34;5071149;28;20078;-60
2023/07/26 02:28:19;;;;;;;0.80;0.55;;;;;;;15.72;86.04;100091.69;5075646;28;20022;-61
2023/07/26 02:30:44;;;;;;;0.43;0.20;;;;;;;15.70;86.78;100092.13;5053403;28;20037;-59
2023/07/26 02:33:10;;;;;;;0.57;0.40;;;;;;;15.67;87.07;100095.66;5055954;28;20029;-61
2023/07/26 02:35:35;;;;;;;0.38;0.25;;;;;;;15.69;86.64;100087.88;5071828;28;20117;-62
2023/07/26 02:38:03;;;;;;;0.80;0.38;;;;;;;15.71;86.78;100088.25;5070855;28;20029;-62
2023/07/26 02:40:29;;;;;;;0.80;0.35;;;;;;;15.73;86.68;100090.53;5065195;28;20479;-62
2023/07/26 02:42:54;;;;;;;0.85;0.30;;;;;;;15.69;86.78;100092.53;5006493;28;20113;-61
2023/07/26 02:45:20;;;;;;;0.65;0.50;;;;;;;15.66;86.61;100085.94;5075695;28;20550;-62
2023/07/26 02:47:46;;;;;;;0.43;0.40;;;;;;;15.64;86.75;100092.97;5073479;28;20383;-62
2023/07/26 02:50:11;;;;;;;0.75;0.47;;;;;;;15.59;87.13;100083.31;5065297;28;20141;-61
2023/07/26 02:52:37;;;;;;;0.50;0.40;;;;;;;15.60;86.67;100084.84;5002471;28;20362;-61
2023/07/26 02:55:02;;;;;;;0.20;0.20;;;;;;;15.59;86.50;100077.88;5008008;28;20026;-60
2023/07/26 02:57:28;;;;;;;0.38;0.38;;;;;;;15.69;86.14;100081.66;5063077;28;20384;-61
2023/07/26 02:59:53;;;;;;;0.60;0.55;;;;;;;15.73;85.95;100076.97;5070606;28;20034;-61
2023/07/26 03:02:19;;;;;;;0.57;0.38;;;;;;;15.67;85.45;100089.44;5064688;28;20482;-59
2023/07/26 03:04:44;;;;;;;0.20;0.20;;;;;;;15.50;86.79;100087.66;5066600;28;20037;-63
2023/07/26 03:07:10;;;;;;;0.57;0.40;;;;;;;15.54;86.96;100091.91;5011045;28;20069;-61
2023/07/26 03:09:35;;;;;;;1.25;0.70;;;;;;;15.50;87.12;100091.16;5000535;28;20072;-61
2023/07/26 03:12:01;;;;;;;0.52;0.40;;;;;;;15.52;86.84;100088.81;5009778;28;20038;-59
2023/07/26 03:14:26;;;;;;;0.77;0.57;;;;;;;15.47;87.38;100089.22;5002239;28;20087;-60
2023/07/26 03:16:52;;;;;;;0.38;0.38;;;;;;;15.51;87.02;100087.25;5010617;28;20032;-63
2023/07/26 03:19:17;;;;;;;0.50;0.50;;;;;;;15.48;87.05;100085.34;5010527;28;20038;-61
2023/07/26 03:21:43;;;;;;;0.32;0.22;;;;;;;15.39;87.10;100080.34;5000895;28;20026;-60
2023/07/26 03:24:08;;;;;;;0.55;0.30;;;;;;;15.45;87.17;100088.84;5010629;28;20112;-61
2023/07/26 03:26:34;;;;;;;0.40;0.40;;;;;;;15.45;87.34;100088.09;5004345;28;20035;-62
2023/07/26 03:28:59;;;;;;;0.52;0.30;;;;;;;15.43;87.49;100091.19;5010325;28;20018;-59
2023/07/26 03:31:25;;;;;;;0.38;0.30;;;;;;;15.41;87.01;100098.94;5069617;28;20099;-60
2023/07/26 03:33:50;;;;;;;0.30;0.30;;;;;;;15.30;87.33;100096.31;5065621;28;20034;-62
2023/07/26 03:36:16;;;;;;;0.52;0.50;;;;;;;15.30;87.39;100098.25;4999287;28;20031;-60
2023/07/26 03:38:41;;;;;;;0.85;0.57;;;;;;;15.24;87.85;100095.22;5073436;28;20461;-60
2023/07/26 03:41:06;;;;;;;0.35;0.30;;;;;;;15.28;87.86;100103.31;5066471;28;20037;-62
2023/07/26 03:43:32;;;;;;;0.20;0.20;;;;;;;15.27;88.15;100107.97;5008635;28;20083;-61
2023/07/26 03:45:57;;;;;;;0.65;0.35;;;;;;;15.33;87.63;100109.09;5010900;28;20057;-61
2023/07/26 03:48:23;;;;;;;0.98;0.65;;;;;;;15.32;87.72;100118.41;5010475;28;20029;-61
2023/07/26 03:50:49;;;;;;;0.38;0.30;;;;;;;15.31;88.11;100107.97;5009844;28;20030;-62
2023/07/26 03:53:15;;;;;;;0.20;0.20;;;;;;;15.34;88.00;100107.94;5076813;28;20044;-61
2023/07/26 03:55:40;;;;;;;0.63;0.43;;;;;;;15.39;87.59;100112.13;5009884;28;20038;-61
2023/07/26 03:58:06;;;;;;;0.50;0.50;;;;;;;15.40;87.58;100116.41;4998271;28;20037;-61
2023/07/26 04:00:32;;;;;;;0.57;0.40;;;;;;;15.39;88.00;100123.75;5010242;28;20034;-59
2023/07/26 04:02:58;;;;;;;0.30;0.30;;;;;;;15.36;87.90;100126.50;5067494;28;20036;-59
2023/07/26 04:05:23;;;;;;;0.80;0.75;;;;;;;15.38;88.19;100126.88;5009333;28;20037;-62
2023/07/26 04:07:50;;;;;;;0.93;0.90;;;;;;;15.59;86.71;100120.53;5009938;28;20048;-63
2023/07/26 04:10:15;;;;;;;0.28;0.25;;;;;;;15.47;88.20;100127.22;5006524;28;20030;-62
2023/07/26 04:12:41;;;;;;;0.38;0.38;;;;;;;15.39;88.18;100125.69;5009040;28;20109;-63
2023/07/26 04:15:07;;;;;;;4.15;0.68;;;;;;;15.38;89.14;100137.75;5008988;28;20105;-61
2023/07/26 04:17:32;;;;;;;0.55;0.40;;;;;;;15.36;89.39;100130.00;5067603;28;20391;-62
2023/07/26 04:19:59;;;;;;;0.88;0.75;;;;;;;15.45;89.56;100126.84;5007893;28;20084;-62
2023/07/26 04:22:27;;;;;;;1.05;0.55;;;;;;;15.53;89.53;100131.06;5076486;28;20064;-62
2023/07/26 04:24:52;;;;;;;3.90;0.50;;;;;;;15.54;89.80;100135.31;5009889;28;20422;-62
2023/07/26 04:27:18;;;;;;;0.65;0.38;;;;;;;15.59;90.02;100134.88;5009200;28;20030;-62
2023/07/26 04:29:43;;;;;;;0.55;0.45;;;;;;;15.61;90.00;100139.91;5010051;28;20033;-60
2023/07/26 04:32:08;;;;;;;1.73;0.50;;;;;;;15.73;90.13;100136.69;5076200;28;20029;-61
2023/07/26 04:34:34;;;;;;;0.50;0.32;;;;;;;15.81;90.33;100144.41;5077410;28;20434;-62
2023/07/26 04:36:59;;;;;;;1.52;0.57;;;;;;;15.85;90.38;100142.38;5008834;28;20686;-61
2023/07/26 04:39:25;;;;;;;1.70;0.82;;;;;;;15.98;89.25;100137.22;5009797;28;20121;-60
2023/07/26 04:41:50;;;;;;;0.60;0.60;;;;;;;15.94;89.68;100141.94;5008320;28;20045;-63
2023/07/26 04:44:16;;;;;;;0.77;0.55;;;;;;;15.86;90.14;100135.78;5009257;28;20060;-60
2023/07/26 04:46:41;;;;;;;0.40;0.40;;;;;;;15.95;89.56;100138.06;4996389;28;20066;-62
2023/07/26 04:49:06;;;;;;;1.92;0.80;;;;;;;15.88;88.96;100128.03;5009193;28;20575;-63
2023/07/26 04:51:32;;;;;;;1.83;0.55;;;;;;;15.82;89.83;100135.06;5009252;28;20084;-62
2023/07/26 04:53:57;;;;;;;0.45;0.45;;;;;;;15.94;89.28;100139.22;5076193;28;20064;-60
2023/07/26 04:56:25;;;;;;;0.50;0.47;;;;;;;15.87;89.19;100136.56;4999375;28;20041;-62
2023/07/26 04:58:51;;;;;;;0.30;0.20;;;;;;;15.85;89.00;100147.81;5009607;28;20042;-61
2023/07/26 05:01:17;;;;;;;1.70;0.45;;;;;;;15.84;90.04;100148.22;5009192;28;20045;-61
2023/07/26 05:03:42;;;;;;;0.30;0.30;;;;;;;15.92;90.67;100155.91;5007541;28;20030;-60
2023/07/26 05:06:10;;;;;;;0.20;0.20;;;;;;;15.94;90.50;100164.44;5009359;28;20600;-57
2023/07/26 05:08:36;;;;;;;0.95;0.50;;;;;;;16.03;90.48;100153.09;5009072;28;20167;-61
2023/07/26 05:11:01;;;;;;;1.15;0.63;;;;;;;16.13;90.10;100155.69;5076887;28;20461;-60
2023/07/26 05:13:26;;;;;;;0.63;0.40;;;;;;;16.10;90.43;100156.50;5007654;28;20346;-60
2023/07/26 05:15:52;;;;;;;0.55;0.50;;;;;;;16.28;90.33;100162.53;5009252;28;20052;-60
2023/07/26 05:18:17;;;;;;;0.52;0.43;;;;;;;16.35;90.24;100163.63;5076611;28;20046;-62
2023/07/26 05:20:43;;;;;;;0.88;0.50;;;;;;;16.39;89.86;100159.69;5008741;28;20064;-60
2023/07/26 05:23:09;;;;;;;0.98;0.52;;;;;;;16.51;89.40;100155.72;4997839;28;20042;-58
2023/07/26 05:25:34;;;;;;;0.30;0.30;;;;;;;16.56;89.54;100158.75;4997520;28;20033;-62
2023/07/26 05:28:00;;;;;;;1.73;0.77;;;;;;;16.71;89.02;100156.59;5067339;28;20486;-63
2023/07/26 05:30:25;;;;;;;0.50;0.35;;;;;;;16.66;88.56;100162.50;5008889;28;20018;-61
2023/07/26 05:32:51;;;;;;;0.77;0.43;;;;;;;16.74;89.53;100172.13;5071222;28;20069;-61
2023/07/26 05:35:16;;;;;;;0.90;0.82;;;;;;;16.89;88.99;100174.25;5006937;28;20096;-62
2023/07/26 05:37:42;;;;;;;0.80;0.77;;;;;;;17.17;88.08;100176.56;5002759;28;20041;-62
2023/07/26 05:40:08;;;;;;;0.28;0.28;;;;;;;17.27;88.10;100172.16;5016736;28;20624;-62
2023/07/26 05:42:34;;;;;;;0.65;0.63;;;;;;;17.39;87.98;100174.31;5037392;28;20034;-62
2023/07/26 05:45:00;;;;;;;1.92;0.57;;;;;;;17.47;88.23;100183.91;5002937;28;20030;-60
2023/07/26 05:47:25;;;;;;;0.50;0.35;;;;;;;17.51;87.94;100181.94;5003794;28;20517;-62
2023/07/26 05:49:51;;;;;;;0.57;0.38;;;;;;;17.61;87.71;100185.69;4999591;28;20033;-62
2023/07/26 05:52:16;;;;;;;0.38;0.22;;;;;;;17.74;87.21;100190.13;5003651;28;20026;-62
2023/07/26 05:54:42;;;;;;;1.48;0.55;;;;;;;17.91;86.45;100188.28;5062518;28;20030;-59
2023/07/26 05:57:08;;;;;;;1.27;0.65;;;;;;;17.86;85.95;100196.94;5003631;28;20389;-63
2023/07/26 05:59:33;;;;;;;0.35;0.20;;;;;;;17.89;85.88;100188.69;5007227;28;20065;-61
2023/07/26 06:01:58;;;;;;;0.20;0.17;;;;;;;18.02;85.15;100194.34;5075355;28;20103;-63
2023/07/26 06:04:24;;;;;;;0.93;0.40;;;;;;;18.24;84.66;100187.28;5006307;28;20069;-64
2023/07/26 06:06:50;;;;;;;0.43;0.40;;;;;;;18.44;84.53;100190.84;5001841;28;20034;-64
2023/07/26 06:09:15;;;;;;;3.25;0.52;;;;;;;18.73;83.39;100196.50;5008182;28;20486;-63
2023/07/26 06:11:42;;;;;;;1.30;0.63;;;;;;;18.63;82.68;100195.53;5001731;28;20014;-63
2023/07/26 06:14:08;;;;;;;0.47;0.32;;;;;;;18.69;82.17;100198.53;5059356;28;20395;-63
2023/07/26 06:16:33;;;;;;;3.40;0.80;;;;;;;18.80;81.54;100201.81;5006360;28;20040;-63
2023/07/26 06:18:59;;;;;;;1.23;0.60;;;;;;;18.84;81.10;100203.28;5007498;28;20095;-64
2023/07/26 06:21:25;;;;;;;7.43;0.45;;;;;;;18.88;80.85;100200.47;5009995;28;20066;-63
2023/07/26 06:23:50;;;;;;;0.40;0.32;;;;;;;19.01;80.14;100206.81;5006862;28;20018;-63
2023/07/26 06:26:15;;;;;;;0.20;0.20;;;;;;;19.05;80.17;100204.78;5008409;28;20038;-63
2023/07/26 06:28:41;;;;;;;0.70;0.70;;;;;;;19.24;79.82;100206.69;5000836;28;20405;-64
2023/07/26 06:31:07;;;;;;;1.00;0.35;;;;;;;19.34;79.58;100210.41;5008181;28;20120;-63
2023/07/26 06:33:32;;;;;;;0.65;0.30;;;;;;;19.47;78.84;100209.31;5062280;28;20044;-62
2023/07/26 06:35:58;;;;;;;2.83;0.50;;;;;;;19.40;78.43;100220.41;5007175;28;20076;-64
2023/07/26 06:38:23;;;;;;;0.25;0.17;;;;;;;19.37;78.65;100212.31;5006925;28;20110;-63
2023/07/26 06:40:50;;;;;;;0.65;0.30;;;;;;;19.42;78.21;100217.25;5007642;28;20029;-63
2023/07/26 06:43:16;;;;;;;1.55;0.47;;;;;;;19.43;78.05;100219.59;5010036;28;20076;-63
2023/07/26 06:45:50;;;;;;;0.20;0.20;;;;;;;19.37;77.53;100229.47;5010127;28;20061;-63
2023/07/26 06:48:16;;;;;;;1.80;0.47;;;;;;;19.30;77.66;100226.09;5011415;28;20549;-64
2023/07/26 06:50:41;;;;;;;0.60;0.43;;;;;;;19.26;77.49;100228.16;5011398;28;20117;-64
2023/07/26 06:53:07;;;;;;;2.20;1.60;;;;;;;19.33;77.58;100230.75;5006727;28;20057;-63
2023/07/26 06:55:34;;;;;;;1.08;0.50;;;;;;;19.44;77.38;100228.53;5011181;28;20033;-63
2023/07/26 06:57:59;;;;;;;0.43;0.35;;;;;;;19.64;77.25;100219.09;5010872;28;20482;-64
2023/07/26 07:00:25;;;;;;;1.10;0.30;;;;;;;19.81;77.24;100225.31;5079440;28;20044;-62
2023/07/26 07:02:56;;;;;;;0.35;0.35;;;;;;;20.11;76.29;100224.94;5005408;28;20026;-62
2023/07/26 07:05:22;;;;;;;0.63;0.25;;;;;;;20.28;74.94;100222.97;5007989;28;20087;-63
2023/07/26 07:07:47;;;;;;;1.58;0.60;;;;;;;20.31;74.26;100228.34;5071522;28;20090;-63
2023/07/26 07:10:13;;;;;;;0.40;0.40;;;;;;;20.32;73.18;100221.69;5009782;28;20038;-63
2023/07/26 07:12:39;;;;;;;0.40;0.40;;;;;;;20.60;72.56;100225.63;5007573;28;20049;-64
2023/07/26 07:15:05;;;;;;;1.02;0.30;;;;;;;20.69;72.14;100232.00;5009969;28;20032;-63
2023/07/26 07:17:31;;;;;;;0.40;0.40;;;;;;;20.81;71.51;100222.28;5010964;28;20045;-63
2023/07/26 07:19:56;;;;;;;0.22;0.22;;;;;;;20.99;70.47;100230.75;5011098;28;20479;-63
2023/07/26 07:22:22;;;;;;;0.73;0.38;;;;;;;21.09;70.70;100221.50;5003433;28;20038;-63
2023/07/26 07:24:48;;;;;;;0.60;0.35;;;;;;;21.23;70.30;100234.78;5010186;28;20156;-62
2023/07/26 07:27:13;;;;;;;0.68;0.25;;;;;;;21.50;70.73;100237.09;5010909;28;20100;-64
2023/07/26 07:29:39;;;;;;;2.15;0.22;;;;;;;21.67;70.49;100238.50;5010417;28;20109;-63
2023/07/26 07:32:05;;;;;;;0.50;0.40;;;;;;;21.82;68.71;100234.13;5000244;28;20041;-62
2023/07/26 07:34:50;;;;;;;1.33;0.40;;;;;;;21.71;67.29;100244.63;5010044;28;20053;-63
2023/07/26 07:37:16;;;;;;;0.82;0.30;;;;;;;21.73;67.20;100241.44;5031482;28;20045;-64
2023/07/26 07:39:41;;;;;;;0.95;0.55;;;;;;;21.95;66.61;100240.34;5024030;28;20665;-64
2023/07/26 07:42:07;;;;;;;1.17;0.55;;;;;;;22.02;66.97;100242.84;5023418;28;20054;-64
2023/07/26 07:44:33;;;;;;;1.15;0.45;;;;;;;22.06;65.07;100238.03;4997615;28;20041;-63
2023/07/26 07:46:58;;;;;;;1.67;0.90;;;;;;;21.91;64.08;100241.69;5012312;28;20108;-64
2023/07/26 07:49:24;;;;;;;1.13;1.02;;;;;;;21.74;64.99;100238.25;5026176;28;20053;-64
2023/07/26 07:51:50;;;;;;;0.45;0.25;;;;;;;21.92;65.65;100238.50;5030379;28;20025;-63
2023/07/26 07:54:16;;;;;;;0.70;0.30;;;;;;;22.17;65.07;100241.16;5027515;28;20072;-63
2023/07/26 07:56:41;;;;;;;0.50;0.40;;;;;;;22.15;62.75;100242.81;5004993;28;20069;-64
2023/07/26 07:59:07;;;;;;;2.90;0.45;;;;;;;22.15;62.52;100231.84;5029091;28;20562;-62
2023/07/26 08:01:33;;;;;;;2.42;1.05;;;;;;;22.17;62.95;100235.69;4995847;28;20209;-64
2023/07/26 08:03:59;;;;;;;0.40;0.30;;;;;;;22.34;62.02;100236.28;5039480;28;20124;-64
2023/07/26 08:06:28;;;;;;;0.60;0.38;;;;;;;22.46;61.58;100246.44;5030439;28;20116;-64
2023/07/26 08:08:53;;;;;;;1.80;0.40;;;;;;;22.57;60.95;100248.84;5030237;28;20545;-62
2023/07/26 08:11:19;;;;;;;2.65;0.30;;;;;;;22.67;59.65;100231.22;5026583;28;20092;-64
2023/07/26 08:13:45;;;;;;;1.67;0.70;;;;;;;22.54;59.50;100242.25;5025338;28;20058;-64
2023/07/26 08:16:11;;;;;;;1.20;0.80;;;;;;;22.50;59.12;100233.38;5034533;28;20044;-64
2023/07/26 08:18:37;;;;;;;1.80;0.50;;;;;;;22.34;59.52;100225.28;5008778;28;20033;-62
2023/07/26 08:21:03;;;;;;;0.80;0.50;;;;;;;22.36;59.30;100237.38;5007016;28;20417;-64
2023/07/26 08:23:32;;;;;;;0.60;0.38;;;;;;;22.42;59.96;100221.88;5008476;28;20026;-63
2023/07/26 08:26:05;;;;;;;1.05;0.50;;;;;;;22.66;59.90;100238.72;5076409;28;20569;-64
2023/07/26 08:28:31;;;;;;;2.30;0.50;;;;;;;22.82;58.01;100237.75;5006214;28;20516;-64
2023/07/26 08:30:57;;;;;;;1.10;0.38;;;;;;;23.03;56.57;100236.97;5033944;28;20034;-64
2023/07/26 08:33:22;;;;;;;0.93;0.32;;;;;;;23.23;56.66;100229.88;5044251;28;20035;-64
2023/07/26 08:35:48;;;;;;;1.92;0.35;;;;;;;23.23;56.70;100227.13;5004642;28;20090;-62
2023/07/26 08:38:13;;;;;;;0.47;0.35;;;;;;;23.49;56.65;100229.72;5009294;28;20094;-63
2023/07/26 08:40:47;;;;;;;2.08;0.60;;;;;;;23.28;55.40;100232.06;4999611;28;20041;-64
2023/07/26 08:43:14;;;;;;;0.32;0.30;;;;;;;22.96;55.20;100237.97;5009004;28;20041;-63
2023/07/26 08:45:42;;;;;;;2.38;0.35;;;;;;;22.88;55.35;100235.97;4999213;28;20042;-64
2023/07/26 08:48:09;;;;;;;1.98;0.47;;;;;;;22.72;55.94;100233.41;5009343;28;20042;-65
2023/07/26 08:50:38;;;;;;;1.15;0.32;;;;;;;23.01;56.47;100229.16;5054962;28;20035;-65
2023/07/26 08:53:05;;;;;;;1.05;0.30;;;;;;;23.18;56.34;100227.72;4998961;28;20033;-64
2023/07/26 08:55:32;;;;;;;0.70;0.20;;;;;;;23.09;56.91;100233.16;5005204;28;20154;-64
2023/07/26 08:57:59;;;;;;;2.22;0.30;;;;;;;22.97;55.43;100222.25;5008992;28;20459;-64
2023/07/26 09:00:28;;;;;;;5.40;0.22;;;;;;;22.92;54.72;100223.59;5060400;28;20034;-62
2023/07/26 09:02:55;;;;;;;0.65;0.25;;;;;;;22.79;55.29;100233.13;5040506;28;20057;-61
2023/07/26 09:05:21;;;;;;;1.17;0.30;;;;;;;22.69;54.23;100226.03;5003316;28;20125;-62
2023/07/26 09:07:46;;;;;;;0.88;0.35;;;;;;;22.58;54.20;100231.16;5009148;28;20113;-63
2023/07/26 09:10:12;;;;;;;0.40;0.22;;;;;;;22.67;54.48;100226.50;5072467;28;20042;-63
2023/07/26 09:12:37;;;;;;;0.50;0.30;;;;;;;22.61;55.42;100228.28;5002179;28;20045;-63
2023/07/26 09:15:05;;;;;;;2.42;0.40;;;;;;;22.46;55.00;100221.75;5002932;28;20017;-64
2023/07/26 09:17:39;;;;;;;0.77;0.40;;;;;;;22.31;55.22;100221.47;5059349;28;20050;-62
2023/07/26 09:20:19;;;;;;;0.50;0.30;;;;;;;22.17;55.16;100226.69;5005620;28;20026;-63
2023/07/26 09:22:44;;;;;;;0.47;0.32;;;;;;;22.24;55.84;100224.44;5008152;28;20482;-63
2023/07/26 09:25:10;;;;;;;0.20;0.20;;;;;;;22.66;55.19;100224.97;5066624;28;20024;-63
2023/07/26 09:27:51;;;;;;;0.28;0.13;;;;;;;23.06;53.66;100222.31;5004952;28;20052;-62
2023/07/26 09:30:20;;;;;;;0.90;0.20;;;;;;;23.47;53.57;100215.66;5007953;28;20486;-63
2023/07/26 09:32:46;;;;;;;0.70;0.20;;;;;;;23.81;53.83;100227.19;5008005;28;20540;-63
2023/07/26 09:35:11;;;;;;;0.47;0.20;;;;;;;24.30;51.33;100238.16;5008789;28;20038;-63
2023/07/26 09:37:37;;;;;;;0.55;0.30;;;;;;;24.65;49.05;100227.59;5005261;28;20029;-65
2023/07/26 09:40:03;;;;;;;0.20;0.10;;;;;;;24.91;49.37;100220.53;5040618;28;20036;-64
2023/07/26 09:42:44;;;;;;;0.98;0.20;;;;;;;25.15;49.09;100221.38;4998360;28;20078;-64
2023/07/26 09:45:14;;;;;;;0.20;0.20;;;;;;;25.38;47.67;100226.19;5002823;28;20052;-63
2023/07/26 09:47:40;;;;;;;0.10;0.10;;;;;;;25.39;47.94;100224.19;5057882;28;20060;-63
2023/07/26 09:50:06;;;;;;;0.15;0.10;;;;;;;25.54;48.04;100228.59;5001126;28;20022;-62
2023/07/26 09:52:32;;;;;;;0.70;0.30;;;;;;;25.62;48.56;100223.50;5003094;28;20042;-64
2023/07/26 09:54:59;;;;;;;0.35;0.20;;;;;;;25.91;47.15;100220.88;5071672;28;20026;-63
2023/07/26 09:57:26;;;;;;;0.50;0.20;;;;;;;26.12;45.92;100222.59;5008113;28;20038;-63
2023/07/26 09:59:58;;;;;;;1.00;0.10;;;;;;;26.36;44.91;100223.34;5008410;28;20101;-63
2023/07/26 10:02:25;;;;;;;0.17;0.15;;;;;;;26.47;44.25;100231.06;5007682;28;20077;-63
2023/07/26 10:04:54;;;;;;;0.32;0.17;;;;;;;26.62;43.49;100218.03;5002573;28;20048;-62
2023/07/26 10:07:23;;;;;;;0.10;0.10;;;;;;;26.64;43.64;100232.13;5008554;28;20048;-64
2023/07/26 10:09:50;;;;;;;0.47;0.35;;;;;;;26.62;43.31;100223.56;5075555;28;20030;-63
2023/07/26 10:12:20;;;;;;;0.32;0.30;;;;;;;26.85;43.66;100225.50;5002944;28;20037;-66
2023/07/26 10:14:46;;;;;;;0.20;0.05;;;;;;;27.00;42.60;100228.28;5063512;28;20051;-63
2023/07/26 10:17:14;;;;;;;0.00;0.00;;;;;;;27.02;41.38;100223.81;5008319;28;20037;-64
2023/07/26 10:19:40;;;;;;;0.20;0.20;;;;;;;27.15;41.88;100226.25;5075956;28;20079;-62
2023/07/26 10:22:07;;;;;;;0.17;0.13;;;;;;;27.32;42.29;100219.78;5062860;28;20045;-62
2023/07/26 10:24:36;;;;;;;0.30;0.17;;;;;;;27.31;41.81;100223.00;5007876;28;20034;-62
2023/07/26 10:27:01;;;;;;;0.10;0.10;;;;;;;27.48;41.89;100229.56;5008103;28;20460;-62
2023/07/26 10:29:27;;;;;;;0.68;0.20;;;;;;;27.74;40.42;100224.91;5008014;28;20042;-62
2023/07/26 10:32:03;;;;;;;0.13;0.10;;;;;;;27.68;41.58;100218.50;5038782;28;20041;-64
2023/07/26 10:34:29;;;;;;;0.98;0.30;;;;;;;27.74;41.30;100219.34;5058118;28;20038;-61
2023/07/26 10:36:55;;;;;;;0.30;0.20;;;;;;;27.70;41.07;100224.34;5007929;28;20022;-63
2023/07/26 10:39:34;;;;;;;0.20;0.20;;;;;;;27.56;41.16;100222.41;5087148;28;20086;-63
2023/07/26 10:42:02;;;;;;;1.20;0.35;;;;;;;27.58;41.03;100211.59;5006638;28;20395;-62
2023/07/26 10:44:27;;;;;;;0.30;0.20;;;;;;;27.38;42.27;100214.31;5002668;28;20120;-63
2023/07/26 10:46:55;;;;;;;0.50;0.30;;;;;;;27.02;42.64;100229.34;5006935;28;20113;-62
2023/07/26 10:49:33;;;;;;;0.20;0.10;;;;;;;27.14;42.12;100221.97;5006734;28;20033;-62
2023/07/26 10:52:05;;;;;;;0.40;0.30;;;;;;;27.10;42.63;100218.63;5006628;28;20110;-63
2023/07/26 10:54:33;;;;;;;0.22;0.20;;;;;;;27.37;41.83;100216.31;5007450;28;20487;-63
2023/07/26 10:57:17;;;;;;;0.45;0.20;;;;;;;27.46;41.67;100215.44;5006303;28;20076;-63
2023/07/26 10:59:55;;;;;;;0.08;0.08;;;;;;;27.52;41.51;100224.59;5054128;28;20030;-64
2023/07/26 11:02:44;;;;;;;0.30;0.30;;;;;;;27.02;42.01;100223.03;5005735;28;21155;-61
2023/07/26 11:05:22;;;;;;;0.40;0.20;;;;;;;26.74;42.55;100217.78;5007779;28;20038;-63
2023/07/26 11:08:01;;;;;;;1.00;0.20;;;;;;;26.52;43.39;100217.34;5001169;28;20133;-64
2023/07/26 11:10:30;;;;;;;3.25;0.20;;;;;;;26.25;43.29;100219.59;5006502;28;20030;-63
2023/07/26 11:13:08;;;;;;;0.10;0.10;;;;;;;25.92;43.82;100217.63;5004506;28;20091;-61
2023/07/26 11:15:35;;;;;;;0.13;0.13;;;;;;;25.80;44.28;100215.88;4995157;28;20090;-63
2023/07/26 11:18:01;;;;;;;1.38;0.30;;;;;;;25.47;44.93;100211.63;5002431;28;20482;-62
2023/07/26 11:20:27;;;;;;;0.65;0.35;;;;;;;25.28;45.96;100210.91;5005033;28;20083;-64
2023/07/26 11:22:52;;;;;;;0.20;0.17;;;;;;;25.37;45.12;100219.16;5006282;28;20073;-62